createdAt,value
2023-03-30T00:01:15.202Z,98727.25
2023-03-30T00:05:19.696Z,98733.66
2023-03-30T00:09:23.086Z,98724.00
2023-03-30T00:13:25.963Z,98731.22
2023-03-30T00:17:28.780Z,98718.94
2023-03-30T00:21:33.531Z,98721.66
2023-03-30T00:25:36.488Z,98690.28
2023-03-30T00:29:39.192Z,98728.78
2023-03-30T00:33:46.545Z,98727.94
2023-03-30T00:37:51.465Z,98722.72
2023-03-30T00:41:54.293Z,98735.59
2023-03-30T00:45:58.000Z,98712.53
2023-03-30T00:50:01.101Z,98702.34
2023-03-30T00:54:08.444Z,98707.56
2023-03-30T00:58:11.785Z,98729.69
2023-03-30T01:02:14.807Z,98726.13
2023-03-30T01:06:21.946Z,98747.53
2023-03-30T01:10:26.654Z,98709.44
2023-03-30T01:14:29.470Z,98667.84
2023-03-30T01:18:40.253Z,98666.94
2023-03-30T01:23:02.196Z,98669.88
2023-03-30T01:27:13.041Z,98677.66
2023-03-30T01:31:45.845Z,98669.47
2023-03-30T01:36:14.434Z,98685.03
2023-03-30T01:40:22.675Z,98688.53
2023-03-30T01:44:31.711Z,98691.47
2023-03-30T01:48:45.475Z,98687.34
2023-03-30T01:52:54.290Z,98715.66
2023-03-30T01:57:00.897Z,98733.84
2023-03-30T02:01:05.084Z,98727.81
2023-03-30T02:05:10.418Z,98731.00
2023-03-30T02:09:16.197Z,98741.41
2023-03-30T02:13:21.013Z,98721.78
2023-03-30T02:17:25.159Z,98714.38
2023-03-30T02:21:28.113Z,98698.66
2023-03-30T02:25:30.812Z,98685.84
2023-03-30T02:29:36.573Z,98682.38
2023-03-30T02:33:46.996Z,98676.50
2023-03-30T02:38:10.194Z,98651.38
2023-03-30T02:42:34.176Z,98627.72
2023-03-30T02:46:52.007Z,98622.63
2023-03-30T02:50:59.808Z,98610.22
2023-03-30T02:55:11.785Z,98606.25
2023-03-30T02:59:20.931Z,98573.97
2023-03-30T03:03:28.698Z,98577.16
2023-03-30T03:07:33.866Z,98555.63
2023-03-30T03:11:36.746Z,98559.19
2023-03-30T03:15:40.085Z,98553.97
2023-03-30T03:19:44.183Z,98553.41
2023-03-30T03:23:48.555Z,98577.28
2023-03-30T03:27:51.250Z,98606.56
2023-03-30T03:31:54.025Z,98625.50
2023-03-30T03:36:00.184Z,98609.50
2023-03-30T03:40:03.203Z,98606.28
2023-03-30T03:44:06.320Z,98595.59
2023-03-30T03:48:10.138Z,98601.31
2023-03-30T03:52:14.451Z,98584.06
2023-03-30T03:56:17.327Z,98582.06
2023-03-30T04:00:20.975Z,98580.09
2023-03-30T04:04:24.074Z,98573.56
2023-03-30T04:08:28.628Z,98566.63
2023-03-30T04:12:31.735Z,98564.59
2023-03-30T04:16:34.605Z,98592.69
2023-03-30T04:20:37.560Z,98606.13
2023-03-30T04:24:42.762Z,98620.41
2023-03-30T04:28:46.863Z,98641.78
2023-03-30T04:33:02.388Z,98656.09
2023-03-30T04:37:06.962Z,98684.66
2023-03-30T04:41:14.170Z,98695.47
2023-03-30T04:45:18.306Z,98682.38
2023-03-30T04:49:21.350Z,98662.88
2023-03-30T04:53:24.276Z,98672.78
2023-03-30T04:57:28.672Z,98681.06
2023-03-30T05:01:31.877Z,98676.22
2023-03-30T05:05:35.111Z,98669.59
2023-03-30T05:09:38.397Z,98673.09
2023-03-30T05:13:42.860Z,98658.38
2023-03-30T05:17:45.734Z,98647.81
2023-03-30T05:21:48.599Z,98630.47
2023-03-30T05:25:51.399Z,98630.75
2023-03-30T05:29:55.756Z,98636.88
2023-03-30T05:33:59.104Z,98626.06
2023-03-30T05:38:02.008Z,98612.53
2023-03-30T05:42:05.923Z,98613.88
2023-03-30T05:46:10.688Z,98627.34
2023-03-30T05:50:13.651Z,98624.50
2023-03-30T05:54:16.392Z,98628.97
2023-03-30T05:58:20.449Z,98633.22
2023-03-30T06:02:24.930Z,98632.16
2023-03-30T06:06:28.696Z,98605.16
2023-03-30T06:10:32.288Z,98591.09
2023-03-30T06:14:35.109Z,98602.22
2023-03-30T06:18:39.599Z,98664.44
2023-03-30T06:22:43.382Z,98657.31
2023-03-30T06:26:46.499Z,98642.47
2023-03-30T06:30:49.821Z,98603.03
2023-03-30T06:34:54.524Z,98605.66
2023-03-30T06:38:57.475Z,98659.94
2023-03-30T06:43:01.133Z,98670.25
2023-03-30T06:47:05.520Z,98661.00
2023-03-30T06:51:10.320Z,98686.97
2023-03-30T06:55:13.941Z,98667.41
2023-03-30T06:59:16.796Z,98649.91
2023-03-30T07:03:20.286Z,98648.34
2023-03-30T07:07:24.495Z,98613.38
2023-03-30T07:11:28.153Z,98605.16
2023-03-30T07:15:30.993Z,98643.28
2023-03-30T07:19:34.486Z,98630.56
2023-03-30T07:23:39.088Z,98656.31
2023-03-30T07:27:42.172Z,98628.38
2023-03-30T07:31:45.269Z,98650.66
2023-03-30T07:35:50.257Z,98658.06
2023-03-30T07:39:54.716Z,98675.28
2023-03-30T07:43:57.832Z,98680.53
2023-03-30T07:48:01.042Z,98693.81
2023-03-30T07:52:03.945Z,98703.88
2023-03-30T07:56:08.849Z,98730.41
2023-03-30T08:00:14.669Z,98714.81
2023-03-30T08:04:17.935Z,98710.81
2023-03-30T08:08:20.987Z,98723.28
2023-03-30T08:12:25.914Z,98710.81
2023-03-30T08:16:28.858Z,98710.78
2023-03-30T08:20:32.094Z,98702.59
2023-03-30T08:24:35.200Z,98729.63
2023-03-30T08:28:39.819Z,98738.34
2023-03-30T08:32:42.749Z,98733.03
2023-03-30T08:36:45.677Z,98723.94
2023-03-30T08:40:51.003Z,98722.81
2023-03-30T08:44:57.040Z,98729.66
2023-03-30T08:49:01.502Z,98741.13
2023-03-30T08:53:05.203Z,98738.44
2023-03-30T08:57:11.969Z,98730.78
2023-03-30T09:01:20.737Z,98743.50
2023-03-30T09:05:27.868Z,98750.47
2023-03-30T09:09:32.726Z,98739.56
2023-03-30T09:13:38.017Z,98744.59
2023-03-30T09:17:44.908Z,98739.59
2023-03-30T09:21:47.909Z,98741.66
2023-03-30T09:25:53.568Z,98745.09
2023-03-30T09:29:58.361Z,98746.38
2023-03-30T09:34:08.534Z,98753.03
2023-03-30T09:38:13.804Z,98758.66
2023-03-30T09:42:23.290Z,98743.72
2023-03-30T09:46:26.145Z,98748.53
2023-03-30T09:50:30.712Z,98767.94
2023-03-30T09:54:38.107Z,98741.06
2023-03-30T09:58:41.925Z,98751.44
2023-03-30T10:02:56.822Z,98753.41
2023-03-30T10:07:09.799Z,98752.44
2023-03-30T10:11:21.992Z,98749.97
2023-03-30T10:15:31.175Z,98746.69
2023-03-30T10:19:38.186Z,98751.19
2023-03-30T10:23:45.697Z,98751.22
2023-03-30T10:27:53.505Z,98750.47
2023-03-30T10:32:00.224Z,98732.81
2023-03-30T10:36:03.346Z,98749.31
2023-03-30T10:40:16.375Z,98749.06
2023-03-30T10:44:24.066Z,98758.75
2023-03-30T10:48:36.434Z,98747.06
2023-03-30T10:52:57.952Z,98719.91
2023-03-30T10:57:09.883Z,98760.59
2023-03-30T11:01:17.640Z,98753.44
2023-03-30T11:05:23.248Z,98773.69
2023-03-30T11:09:29.482Z,98766.59
2023-03-30T11:13:36.217Z,98767.38
2023-03-30T11:17:45.837Z,98759.16
2023-03-30T11:21:56.992Z,98768.31
2023-03-30T11:26:02.976Z,98764.38
2023-03-30T11:30:12.579Z,98772.81
2023-03-30T11:34:20.507Z,98765.28
2023-03-30T11:38:27.368Z,98754.63
2023-03-30T11:42:31.918Z,98757.28
2023-03-30T11:46:42.105Z,98757.94
2023-03-30T11:50:57.910Z,98760.38
2023-03-30T11:55:19.829Z,98756.00
2023-03-30T11:59:26.801Z,98765.50
2023-03-30T12:03:41.132Z,98761.31
2023-03-30T12:07:51.950Z,98752.22
2023-03-30T12:12:04.843Z,98735.50
2023-03-30T12:16:10.113Z,98740.50
2023-03-30T12:20:22.319Z,98734.84
2023-03-30T12:24:30.506Z,98736.78
2023-03-30T12:29:11.270Z,98749.16
2023-03-30T12:33:13.564Z,98726.59
2023-03-30T12:37:21.281Z,98741.47
2023-03-30T12:41:28.233Z,98736.81
2023-03-30T12:45:33.439Z,98743.03
2023-03-30T12:49:44.490Z,98744.50
2023-03-30T12:53:58.846Z,98726.31
2023-03-30T12:58:26.728Z,98741.91
2023-03-30T13:02:40.381Z,98732.09
2023-03-30T13:06:49.462Z,98737.09
2023-03-30T13:11:07.720Z,98728.25
2023-03-30T13:15:41.982Z,98717.22
2023-03-30T13:19:49.604Z,98732.25
2023-03-30T13:24:20.402Z,98728.34
2023-03-30T13:28:49.359Z,98717.38
2023-03-30T13:33:00.528Z,98712.38
2023-03-30T13:37:13.210Z,98715.25
2023-03-30T13:41:27.781Z,98737.47
2023-03-30T13:45:48.607Z,98732.63
2023-03-30T13:49:56.304Z,98716.91
2023-03-30T13:54:01.102Z,98730.56
2023-03-30T13:58:07.705Z,98714.06
2023-03-30T14:02:15.530Z,98709.41
2023-03-30T14:06:21.312Z,98711.38
2023-03-30T14:10:24.558Z,98717.00
2023-03-30T14:14:35.200Z,98723.63
2023-03-30T14:18:39.341Z,98724.44
2023-03-30T14:22:45.651Z,98747.28
2023-03-30T14:26:50.295Z,98754.53
2023-03-30T14:30:54.772Z,98740.19
2023-03-30T14:34:58.850Z,98750.59
2023-03-30T14:39:02.555Z,98743.66
2023-03-30T14:43:06.172Z,98723.78
2023-03-30T14:47:09.166Z,98733.09
2023-03-30T14:51:26.572Z,98749.13
2023-03-30T14:55:29.387Z,98753.16
2023-03-30T14:59:34.395Z,98755.22
2023-03-30T15:03:38.359Z,98781.59
2023-03-30T15:07:42.564Z,98807.47
2023-03-30T15:11:54.478Z,98778.13
2023-03-30T15:15:57.264Z,98776.53
2023-03-30T15:20:01.223Z,98758.84
2023-03-30T15:24:08.289Z,98759.13
2023-03-30T15:28:14.950Z,98750.38
2023-03-30T15:32:20.033Z,98744.53
2023-03-30T15:36:24.804Z,98751.75
2023-03-30T15:40:42.973Z,98744.91
2023-03-30T15:44:45.961Z,98747.63
2023-03-30T15:48:50.305Z,98748.09
2023-03-30T15:53:00.125Z,98741.00
2023-03-30T15:57:06.283Z,98735.38
2023-03-30T16:01:13.185Z,98742.09
2023-03-30T16:05:19.401Z,98732.22
2023-03-30T16:09:22.960Z,98734.31
2023-03-30T16:13:27.137Z,98732.97
2023-03-30T16:17:29.899Z,98722.06
2023-03-30T16:21:32.726Z,98726.16
2023-03-30T16:25:44.628Z,98746.16
2023-03-30T16:29:49.573Z,98722.66
2023-03-30T16:33:52.767Z,98736.28
2023-03-30T16:37:55.522Z,98730.50
2023-03-30T16:41:58.623Z,98733.09
2023-03-30T16:46:02.812Z,98729.03
2023-03-30T16:50:18.190Z,98726.94
2023-03-30T16:54:31.229Z,98728.34
2023-03-30T16:58:35.065Z,98727.78
2023-03-30T17:02:39.538Z,98723.25
2023-03-30T17:06:42.353Z,98730.97
2023-03-30T17:10:45.302Z,98822.91
2023-03-30T17:14:48.278Z,98819.91
2023-03-30T17:18:52.741Z,98781.63
2023-03-30T17:22:55.612Z,98779.53
2023-03-30T17:26:59.474Z,98770.84
2023-03-30T17:31:04.009Z,98764.25
2023-03-30T17:35:10.602Z,98752.75
2023-03-30T17:39:14.128Z,98748.28
2023-03-30T17:43:16.983Z,98754.16
2023-03-30T17:47:19.932Z,98766.53
2023-03-30T17:51:23.966Z,98767.28
2023-03-30T17:55:28.433Z,98761.16
2023-03-30T17:59:31.388Z,98761.63
2023-03-30T18:03:35.028Z,98757.38
2023-03-30T18:07:39.560Z,98755.88
2023-03-30T18:11:42.857Z,98757.84
2023-03-30T18:15:49.248Z,98758.19
2023-03-30T18:19:52.629Z,98747.66
2023-03-30T18:23:56.958Z,98751.97
2023-03-30T18:27:59.789Z,98753.78
2023-03-30T18:32:02.798Z,98746.91
2023-03-30T18:36:08.060Z,98753.63
2023-03-30T18:40:32.098Z,98759.13
2023-03-30T18:44:35.836Z,98758.16
2023-03-30T18:48:38.846Z,98759.94
2023-03-30T18:52:41.740Z,98740.47
2023-03-30T18:56:47.813Z,98736.47
2023-03-30T19:00:51.882Z,98742.97
2023-03-30T19:04:55.836Z,98773.25
2023-03-30T19:08:58.649Z,98777.00
2023-03-30T19:13:02.913Z,98763.47
2023-03-30T19:17:06.226Z,98771.66
2023-03-30T19:21:10.687Z,98754.22
2023-03-30T19:25:14.471Z,98752.84
2023-03-30T19:29:18.567Z,98748.44
2023-03-30T19:33:21.539Z,98747.06
2023-03-30T19:37:24.367Z,98738.28
2023-03-30T19:41:27.556Z,98733.44
2023-03-30T19:45:31.848Z,98745.34
2023-03-30T19:49:34.610Z,98744.28
2023-03-30T19:53:37.397Z,98741.75
2023-03-30T19:57:40.098Z,98752.56
2023-03-30T20:01:44.293Z,98726.56
2023-03-30T20:05:51.012Z,98729.50
2023-03-30T20:09:54.123Z,98718.91
2023-03-30T20:13:56.923Z,98723.94
2023-03-30T20:18:01.047Z,98717.63
2023-03-30T20:22:04.101Z,98717.75
2023-03-30T20:26:06.904Z,98708.28
2023-03-30T20:30:11.698Z,98701.94
2023-03-30T20:34:16.760Z,98704.47
2023-03-30T20:38:19.790Z,98698.78
2023-03-30T20:42:26.387Z,98702.78
2023-03-30T20:46:35.476Z,98679.03
2023-03-30T20:50:39.892Z,98690.13
2023-03-30T20:54:42.699Z,98676.69
2023-03-30T20:58:45.539Z,98665.69
2023-03-30T21:02:48.303Z,98663.44
2023-03-30T21:06:52.473Z,98665.09
2023-03-30T21:10:55.487Z,98662.97
2023-03-30T21:14:58.246Z,98655.13
2023-03-30T21:19:01.073Z,98595.19
2023-03-30T21:23:05.462Z,98638.31
2023-03-30T21:27:08.226Z,98627.19
2023-03-30T21:31:16.428Z,98596.00
2023-03-30T21:35:19.202Z,98629.31
2023-03-30T21:39:23.789Z,98618.59
2023-03-30T21:43:27.683Z,98619.03
2023-03-30T21:47:31.299Z,98614.09
2023-03-30T21:51:34.571Z,98599.03
2023-03-30T21:55:38.629Z,98584.84
2023-03-30T21:59:41.483Z,98596.50
2023-03-30T22:03:46.195Z,98598.38
2023-03-30T22:07:51.541Z,98587.34
2023-03-30T22:11:55.877Z,98571.88
2023-03-30T22:15:59.209Z,98573.69
2023-03-30T22:20:02.120Z,98563.38
2023-03-30T22:24:06.959Z,98559.06
2023-03-30T22:28:12.034Z,98561.34
2023-03-30T22:32:15.133Z,98555.03
2023-03-30T22:36:20.525Z,98549.03
2023-03-30T22:40:23.183Z,98546.78
2023-03-30T22:44:27.321Z,98531.41
2023-03-30T22:48:30.347Z,98530.88
2023-03-30T22:52:33.636Z,98523.00
2023-03-30T22:56:36.271Z,98518.59
2023-03-30T23:00:40.361Z,98513.75
2023-03-30T23:04:44.120Z,98510.94
2023-03-30T23:08:48.439Z,98514.03
2023-03-30T23:12:51.484Z,98518.47
2023-03-30T23:16:57.661Z,98510.69
2023-03-30T23:21:06.113Z,98505.19
2023-03-30T23:25:10.198Z,98510.31
2023-03-30T23:29:13.224Z,98491.63
2023-03-30T23:33:17.348Z,98482.91
2023-03-30T23:37:21.930Z,98475.00
2023-03-30T23:41:24.651Z,98477.22
2023-03-30T23:45:27.382Z,98466.59
2023-03-30T23:49:31.462Z,98470.06
2023-03-30T23:53:34.141Z,98467.69
2023-03-30T23:57:36.958Z,98475.09
